Aviation Digital Data Service (ADDS)

Output produced by TAFs form (0023 UTC 21 January 2018)
found at http://aviationweather.gov/adds/tafs/
 
KSAF 202331Z 2100/2124 22011KT P6SM BKN100 
     FM210600 25016G24KT 6SM -RASN OVC040 
     FM210900 26013KT P6SM VCSH OVC050 
     TEMPO 2111/2115 5SM -SN OVC030 
     FM211500 26018G28KT P6SM OVC040 
     FM211800 28026G36KT P6SM BKN050